Terminal Aerodrome Forecast
Issued by NWS Wilmington, OH

Home | Current Version | Previous Version | Text Only | Print | Product List | Glossary On
Versions: 1 2 3 4 5 6 7 8 9 10 11 12 13 14 15 16 17 18 19 20 21 22 23 24 25 26 27 28 29 30 31
536
FTUS41 KILN 040357 AAA
TAFCVG
TAF AMD
KCVG 040357Z 0404/0506 VRB03KT P6SM SCT027 BKN110
      TEMPO 0404/0408 BKN027
     FM041400 11007KT P6SM BKN040
     FM041800 14007KT P6SM -SHRA OVC025
     FM050000 17005KT 5SM -SHRA BR OVC015=

USA.gov is the U.S. government's official web portal to all federal, state and local government web resources and services.